Time;durP1;ratioP1;P1;durP2;ratioP2;P2;SDS_P1;SDS_P2;PMS_P1;PMS_P2;Temp;Humidity;BMP_temperature;BMP_pressure;BME280_temperature;BME280_humidity;BME280_pressure;Samples;Min_cycle;Max_cycle;Signal;HPM_P1;HPM_P2
2021/01/15 00:00:27;;;;;;;36.48;20.72;;;;;;;-2.52;81.51;96246.97;1641463;86;21165;-76
2021/01/15 00:02:55;;;;;;;36.55;21.40;;;;;;;-2.55;81.57;96256.09;1662894;85;21158;-76
2021/01/15 00:05:22;;;;;;;33.10;21.87;;;;;;;-2.55;81.68;96254.01;1621748;86;21460;-76
2021/01/15 00:07:48;;;;;;;38.90;22.77;;;;;;;-2.50;81.79;96262.12;1628313;86;21370;-76
2021/01/15 00:10:14;;;;;;;37.48;22.00;;;;;;;-2.48;81.76;96257.28;1665552;85;21134;-76
2021/01/15 00:12:40;;;;;;;31.33;17.30;;;;;;;-2.47;81.62;96261.45;1665209;85;21131;-76
2021/01/15 00:15:08;;;;;;;39.67;22.85;;;;;;;-2.49;81.53;96263.75;1664882;85;21163;-76
2021/01/15 00:17:34;;;;;;;35.75;20.65;;;;;;;-2.58;81.50;96268.21;1666920;85;21146;-76
2021/01/15 00:20:01;;;;;;;37.98;24.05;;;;;;;-2.54;81.82;96268.35;1657431;86;21271;-76
2021/01/15 00:22:27;;;;;;;36.38;22.58;;;;;;;-2.53;81.81;96270.79;1664015;85;21142;-76
2021/01/15 00:24:53;;;;;;;39.50;23.30;;;;;;;-2.44;81.94;96270.17;1638269;85;21352;-76
2021/01/15 00:27:19;;;;;;;37.75;22.58;;;;;;;-2.41;81.78;96267.88;1657972;85;21106;-76
2021/01/15 00:29:45;;;;;;;38.85;22.45;;;;;;;-2.39;81.69;96271.59;1667621;85;21454;-76
2021/01/15 00:32:11;;;;;;;34.67;23.05;;;;;;;-2.35;81.85;96269.98;1666498;85;21158;-76
2021/01/15 00:34:37;;;;;;;35.15;21.65;;;;;;;-2.33;81.58;96278.33;1667175;85;21268;-76
2021/01/15 00:37:03;;;;;;;36.13;21.57;;;;;;;-2.30;81.51;96278.57;1666631;85;21107;-78
2021/01/15 00:39:30;;;;;;;38.17;23.18;;;;;;;-2.33;81.41;96285.96;1660047;85;21290;-78
2021/01/15 00:41:56;;;;;;;42.10;22.95;;;;;;;-2.38;81.34;96292.30;1666315;85;21162;-78
2021/01/15 00:44:22;;;;;;;40.65;23.38;;;;;;;-2.44;81.33;96296.08;1666142;85;21174;-78
2021/01/15 00:46:54;;;;;;;36.42;21.42;;;;;;;-2.49;81.28;96305.73;1667022;85;21160;-78
2021/01/15 00:49:20;;;;;;;42.90;23.57;;;;;;;-2.54;81.30;96311.14;1666896;85;21166;-78
2021/01/15 00:51:49;;;;;;;40.88;24.23;;;;;;;-2.53;81.54;96310.22;1666921;85;21142;-78
2021/01/15 00:54:15;;;;;;;43.00;24.77;;;;;;;-2.52;81.56;96309.30;1667113;85;21142;-78
2021/01/15 00:56:42;;;;;;;43.45;25.00;;;;;;;-2.56;81.47;96315.52;1671807;85;21150;-78
2021/01/15 00:59:08;;;;;;;44.73;25.95;;;;;;;-2.58;81.56;96315.27;1653844;86;21141;-78
2021/01/15 01:01:37;;;;;;;39.95;24.75;;;;;;;-2.55;81.62;96313.33;1666450;85;21194;-78
2021/01/15 01:04:04;;;;;;;44.70;24.40;;;;;;;-2.55;81.62;96315.06;1662954;85;21415;-78
2021/01/15 01:06:31;;;;;;;43.30;26.60;;;;;;;-2.55;81.61;96315.88;1655071;85;21153;-78
2021/01/15 01:08:57;;;;;;;44.40;26.60;;;;;;;-2.57;81.52;96316.90;1656770;85;21384;-78
2021/01/15 01:11:24;;;;;;;44.45;25.30;;;;;;;-2.62;81.57;96322.73;1650900;86;21343;-78
2021/01/15 01:13:53;;;;;;;43.55;25.20;;;;;;;-2.59;81.59;96320.82;1655869;85;21161;-78
2021/01/15 01:16:20;;;;;;;41.55;24.45;;;;;;;-2.57;81.54;96320.72;1659691;86;21107;-78
2021/01/15 01:18:46;;;;;;;40.05;23.05;;;;;;;-2.58;81.48;96323.72;1657919;86;21280;-79
2021/01/15 01:21:12;;;;;;;38.00;22.58;;;;;;;-2.55;81.33;96329.87;1653960;85;21106;-78
2021/01/15 01:23:39;;;;;;;35.40;20.95;;;;;;;-2.60;81.00;96332.38;1645009;86;21156;-78
2021/01/15 01:26:05;;;;;;;46.48;25.35;;;;;;;-2.68;80.93;96325.23;1645756;86;21133;-78
2021/01/15 01:28:31;;;;;;;37.03;20.32;;;;;;;-2.70;81.21;96330.07;1645047;86;21478;-78
2021/01/15 01:30:59;;;;;;;45.23;26.20;;;;;;;-2.71;81.04;96338.16;1651112;86;21156;-78
2021/01/15 01:33:25;;;;;;;41.63;24.98;;;;;;;-2.78;81.21;96332.64;1651612;85;21110;-78
2021/01/15 01:35:51;;;;;;;39.30;23.25;;;;;;;-2.79;81.17;96332.29;1654822;85;21269;-78
2021/01/15 01:38:17;;;;;;;46.80;26.17;;;;;;;-2.82;81.15;96333.77;1648428;86;21166;-79
2021/01/15 01:40:44;;;;;;;42.08;25.57;;;;;;;-2.82;81.20;96335.50;1651522;85;21314;-78
2021/01/15 01:43:11;;;;;;;39.38;24.70;;;;;;;-2.88;81.06;96334.19;1644883;86;21354;-78
2021/01/15 01:45:37;;;;;;;41.08;24.87;;;;;;;-2.87;81.22;96340.08;1642232;85;21171;-76
2021/01/15 01:48:05;;;;;;;40.75;25.23;;;;;;;-2.88;81.10;96346.08;1641847;86;21149;-76
2021/01/15 01:50:31;;;;;;;38.10;20.10;;;;;;;-2.93;80.97;96341.73;1646316;86;21277;-76
2021/01/15 01:52:58;;;;;;;38.67;22.82;;;;;;;-2.92;81.02;96340.84;1646714;85;21291;-76
2021/01/15 01:55:24;;;;;;;39.10;23.77;;;;;;;-2.97;80.93;96347.94;1650225;85;21479;-76
2021/01/15 01:57:50;;;;;;;43.13;25.35;;;;;;;-2.97;81.04;96335.23;1648884;85;21154;-77
2021/01/15 02:00:17;;;;;;;39.75;23.25;;;;;;;-2.98;81.02;96339.50;1641762;85;21141;-77
2021/01/15 02:02:43;;;;;;;39.73;24.55;;;;;;;-2.98;81.15;96345.86;1633916;85;21379;-76
2021/01/15 02:05:11;;;;;;;43.28;25.57;;;;;;;-2.95;81.20;96338.02;1621699;86;21203;-76
2021/01/15 02:07:37;;;;;;;37.83;21.48;;;;;;;-2.85;81.32;96340.80;1637199;85;21149;-76
2021/01/15 02:10:17;;;;;;;43.40;26.68;;;;;;;-2.78;81.15;96349.63;1634576;86;21141;-76
2021/01/15 02:12:58;;;;;;;39.48;24.87;;;;;;;-2.77;81.05;96344.91;1639995;85;21163;-76
2021/01/15 02:15:37;;;;;;;46.13;24.85;;;;;;;-2.77;80.88;96343.20;1635548;85;21145;-76
2021/01/15 02:18:26;;;;;;;38.85;23.75;;;;;;;-2.78;80.83;96340.73;1604404;87;21506;-77
2021/01/15 02:21:26;;;;;;;35.52;21.37;;;;;;;-2.76;80.83;96338.93;1642696;86;21199;-76
2021/01/15 02:23:52;;;;;;;36.98;22.42;;;;;;;-2.79;80.51;96334.83;1652688;86;21157;-76
2021/01/15 02:26:55;;;;;;;37.95;23.05;;;;;;;-2.83;80.52;96328.79;1603552;86;21167;-76
2021/01/15 02:29:22;;;;;;;42.10;24.57;;;;;;;-2.81;80.69;96332.85;1652512;85;21509;-77
2021/01/15 02:32:29;;;;;;;39.75;23.47;;;;;;;-2.82;80.63;96333.77;1638898;86;21151;-78
2021/01/15 02:35:04;;;;;;;37.48;22.98;;;;;;;-2.80;80.75;96338.30;1648339;85;21139;-78
2021/01/15 02:38:01;;;;;;;41.30;23.20;;;;;;;-2.74;80.68;96336.64;1651442;85;21133;-78
2021/01/15 02:40:36;;;;;;;40.85;24.82;;;;;;;-2.78;80.67;96336.46;1652166;85;21111;-79
2021/01/15 02:43:03;;;;;;;39.60;23.30;;;;;;;-2.75;80.71;96336.28;1656519;85;21844;-78
2021/01/15 02:45:29;;;;;;;38.15;23.73;;;;;;;-2.74;80.64;96337.91;1648930;85;21130;-78
2021/01/15 02:47:58;;;;;;;42.38;23.22;;;;;;;-2.80;80.58;96343.37;1655848;85;21142;-78
2021/01/15 02:50:26;;;;;;;38.98;23.77;;;;;;;-2.84;80.57;96341.14;1648410;85;21283;-78
2021/01/15 02:52:54;;;;;;;43.52;24.15;;;;;;;-2.86;80.70;96343.80;1653653;85;21359;-78
2021/01/15 02:55:20;;;;;;;41.77;23.95;;;;;;;-2.84;80.82;96345.77;1632966;86;21261;-78
2021/01/15 02:57:46;;;;;;;38.17;22.67;;;;;;;-2.86;80.71;96345.52;1651080;86;21369;-78
2021/01/15 03:00:15;;;;;;;32.20;19.52;;;;;;;-2.95;80.75;96334.67;1651214;85;21163;-78
2021/01/15 03:02:56;;;;;;;37.50;23.70;;;;;;;-2.93;80.71;96345.55;1653180;85;21111;-78
2021/01/15 03:05:24;;;;;;;44.40;23.67;;;;;;;-2.97;80.86;96347.48;1646725;85;21176;-78
2021/01/15 03:07:50;;;;;;;38.35;22.13;;;;;;;-2.96;81.00;96346.56;1652413;85;21146;-77
2021/01/15 03:10:25;;;;;;;33.75;19.82;;;;;;;-2.98;80.86;96350.94;1656490;85;21480;-77
2021/01/15 03:12:51;;;;;;;37.35;23.52;;;;;;;-3.08;80.82;96357.55;1652070;86;21190;-76
2021/01/15 03:15:18;;;;;;;39.30;24.43;;;;;;;-3.12;80.98;96359.91;1652741;86;21177;-77
2021/01/15 03:17:47;;;;;;;40.00;23.75;;;;;;;-3.12;81.08;96351.02;1657098;85;21167;-76
2021/01/15 03:20:14;;;;;;;35.95;21.60;;;;;;;-3.11;81.13;96352.18;1652913;86;21194;-77
2021/01/15 03:22:44;;;;;;;37.38;21.95;;;;;;;-3.14;81.06;96361.28;1654838;85;21244;-76
2021/01/15 03:25:10;;;;;;;36.75;20.82;;;;;;;-3.19;81.13;96350.61;1656230;85;21327;-76
2021/01/15 03:27:52;;;;;;;35.30;21.50;;;;;;;-3.20;81.23;96358.33;1654445;85;21154;-76
2021/01/15 03:30:27;;;;;;;41.10;22.95;;;;;;;-3.27;81.08;96348.99;1655704;85;21186;-76
2021/01/15 03:32:56;;;;;;;34.03;21.52;;;;;;;-3.27;81.24;96354.08;1654983;85;21154;-76
2021/01/15 03:35:24;;;;;;;34.25;19.50;;;;;;;-3.27;81.32;96346.45;1654041;85;21161;-76
2021/01/15 03:38:06;;;;;;;37.73;23.20;;;;;;;-3.25;81.42;96358.63;1657915;85;21275;-76
2021/01/15 03:40:36;;;;;;;41.85;23.92;;;;;;;-3.24;81.44;96355.63;1655379;85;21144;-75
2021/01/15 03:43:22;;;;;;;34.23;22.60;;;;;;;-3.23;81.39;96348.36;1656269;85;21376;-76
2021/01/15 03:45:49;;;;;;;37.45;22.17;;;;;;;-3.18;81.41;96343.80;1654520;85;22083;-76
2021/01/15 03:48:15;;;;;;;37.28;22.65;;;;;;;-3.18;81.34;96341.25;1645913;85;21449;-76
2021/01/15 03:50:41;;;;;;;38.83;22.35;;;;;;;-3.16;81.34;96349.59;1655374;85;21122;-76
2021/01/15 03:53:07;;;;;;;39.38;23.07;;;;;;;-3.18;81.17;96347.14;1660788;85;21130;-76
2021/01/15 03:55:34;;;;;;;36.03;21.77;;;;;;;-3.15;81.33;96345.67;1660488;85;21198;-76
2021/01/15 03:58:00;;;;;;;38.60;23.75;;;;;;;-3.11;81.28;96353.45;1652814;85;21153;-76
2021/01/15 04:00:26;;;;;;;36.75;22.07;;;;;;;-3.07;81.19;96356.64;1657584;85;21196;-76
2021/01/15 04:02:52;;;;;;;36.55;21.97;;;;;;;-3.07;80.99;96355.36;1648158;85;21345;-76
2021/01/15 04:05:18;;;;;;;32.70;18.95;;;;;;;-3.09;81.06;96353.38;1658557;85;21181;-76
2021/01/15 04:07:44;;;;;;;33.23;19.35;;;;;;;-3.12;80.78;96354.37;1651977;85;21142;-76
2021/01/15 04:10:13;;;;;;;32.55;20.60;;;;;;;-3.19;80.71;96358.23;1654230;85;21456;-76
2021/01/15 04:12:40;;;;;;;33.18;21.10;;;;;;;-3.24;80.83;96357.72;1654680;85;21134;-75
2021/01/15 04:15:07;;;;;;;34.98;21.48;;;;;;;-3.21;81.02;96354.16;1659426;85;21137;-75
2021/01/15 04:17:34;;;;;;;31.68;19.98;;;;;;;-3.24;80.83;96356.45;1655500;85;21127;-76
2021/01/15 04:20:00;;;;;;;31.95;19.85;;;;;;;-3.23;80.86;96359.80;1658669;85;21153;-76
2021/01/15 04:22:33;;;;;;;32.83;20.10;;;;;;;-3.22;80.96;96349.53;1652576;86;21329;-76
2021/01/15 04:24:59;;;;;;;34.78;21.17;;;;;;;-3.21;80.93;96351.62;1650355;86;21403;-76
2021/01/15 04:27:30;;;;;;;30.50;19.40;;;;;;;-3.14;81.02;96349.84;1651604;86;21172;-76
2021/01/15 04:29:56;;;;;;;36.00;21.95;;;;;;;-3.05;81.09;96356.08;1647368;85;21160;-76
2021/01/15 04:32:23;;;;;;;32.93;19.95;;;;;;;-3.03;80.83;96347.89;1653550;86;21581;-76
2021/01/15 04:34:50;;;;;;;34.88;21.00;;;;;;;-3.07;80.64;96346.01;1648857;86;21129;-75
2021/01/15 04:37:16;;;;;;;27.95;19.02;;;;;;;-3.08;80.75;96349.47;1657407;86;21335;-76
2021/01/15 04:39:42;;;;;;;35.40;22.30;;;;;;;-3.11;80.58;96350.91;1650221;86;22393;-76
2021/01/15 04:42:09;;;;;;;35.58;21.27;;;;;;;-3.18;80.67;96347.14;1652353;86;21498;-76
2021/01/15 04:44:35;;;;;;;35.98;21.42;;;;;;;-3.22;80.73;96350.80;1656275;85;21415;-76
2021/01/15 04:47:04;;;;;;;35.48;20.62;;;;;;;-3.23;80.83;96345.37;1647029;86;21175;-76
2021/01/15 04:49:30;;;;;;;36.25;22.55;;;;;;;-3.21;80.89;96346.53;1655991;86;21148;-76
2021/01/15 04:51:59;;;;;;;39.08;20.72;;;;;;;-3.20;80.90;96343.89;1650549;85;21432;-75
2021/01/15 04:54:37;;;;;;;33.60;21.40;;;;;;;-3.16;81.05;96351.67;1626343;86;21264;-76
2021/01/15 04:57:08;;;;;;;35.48;21.33;;;;;;;-3.12;80.91;96351.83;1653457;86;21292;-75
2021/01/15 04:59:44;;;;;;;32.60;19.37;;;;;;;-3.15;80.76;96353.76;1653865;86;21164;-76
2021/01/15 05:02:11;;;;;;;35.05;20.80;;;;;;;-3.17;80.81;96350.05;1655008;86;21149;-76
2021/01/15 05:04:38;;;;;;;34.18;20.10;;;;;;;-3.19;80.72;96352.33;1651829;86;21477;-76
2021/01/15 05:07:11;;;;;;;25.30;16.37;;;;;;;-3.18;80.93;96356.50;1653424;86;21158;-76
2021/01/15 05:09:45;;;;;;;34.88;21.20;;;;;;;-3.18;80.74;96359.85;1652024;85;21120;-76
2021/01/15 05:12:15;;;;;;;35.88;21.00;;;;;;;-3.23;80.82;96355.53;1647777;86;21138;-76
2021/01/15 05:14:42;;;;;;;38.53;22.52;;;;;;;-3.19;80.97;96359.50;1650048;86;21353;-75
2021/01/15 05:17:09;;;;;;;35.10;21.00;;;;;;;-3.19;80.92;96353.14;1656971;86;21480;-75
2021/01/15 05:19:41;;;;;;;35.90;20.17;;;;;;;-3.14;81.02;96353.66;1653578;86;21351;-75
2021/01/15 05:22:08;;;;;;;36.65;22.45;;;;;;;-3.12;80.93;96349.74;1631637;85;21150;-76
2021/01/15 05:24:35;;;;;;;38.28;23.05;;;;;;;-3.15;80.82;96355.03;1650785;85;21349;-76
2021/01/15 05:30:21;;;;;;;41.18;23.27;;;;;;;-3.13;80.83;96354.02;1651520;85;21263;-76
2021/01/15 05:32:53;;;;;;;40.90;22.65;;;;;;;-3.12;80.99;96353.55;1642031;85;21178;-76
2021/01/15 05:35:41;;;;;;;32.58;17.90;;;;;;;-3.10;80.95;96351.27;1635425;86;21349;-76
2021/01/15 05:38:07;;;;;;;27.42;16.75;;;;;;;-3.12;80.75;96356.91;1659763;85;21279;-76
2021/01/15 05:40:50;;;;;;;29.02;19.20;;;;;;;-3.17;80.65;96363.20;1658447;86;21141;-76
2021/01/15 05:43:24;;;;;;;33.00;21.00;;;;;;;-3.23;80.74;96362.34;1652591;85;21097;-76
2021/01/15 05:48:55;;;;;;;41.90;22.02;;;;;;;-3.26;80.90;96372.67;1799965;78;22876;-76
2021/01/15 05:51:29;;;;;;;37.83;23.77;;;;;;;-3.37;81.01;96379.27;1768007;79;21113;-76
2021/01/15 05:53:56;;;;;;;34.18;19.55;;;;;;;-3.37;81.17;96374.64;1770084;79;21470;-75
2021/01/15 05:56:23;;;;;;;37.53;23.42;;;;;;;-3.35;81.32;96372.81;1769469;79;21325;-76
2021/01/15 05:59:12;;;;;;;40.10;23.52;;;;;;;-3.32;81.32;96373.44;1766966;79;21065;-75
2021/01/15 06:02:02;;;;;;;39.58;24.20;;;;;;;-3.29;81.29;96376.69;1780544;79;21092;-76
2021/01/15 06:04:37;;;;;;;39.92;24.70;;;;;;;-3.33;81.32;96373.08;1783006;79;21216;-76
2021/01/15 06:07:12;;;;;;;41.55;21.95;;;;;;;-3.37;81.24;96382.27;1772554;79;21114;-76
2021/01/15 06:09:40;;;;;;;40.17;24.37;;;;;;;-3.42;81.40;96377.91;1772570;79;21110;-76
2021/01/15 06:12:11;;;;;;;45.60;25.50;;;;;;;-3.50;81.44;96387.29;1766027;79;21113;-75
2021/01/15 06:14:50;;;;;;;43.38;26.62;;;;;;;-3.47;81.55;96383.74;1779560;79;21113;-76
2021/01/15 06:17:18;;;;;;;47.40;25.27;;;;;;;-3.42;81.67;96377.91;1773193;79;21080;-76
2021/01/15 06:19:53;;;;;;;49.60;28.07;;;;;;;-3.31;81.82;96374.25;1764770;80;21215;-76
2021/01/15 06:22:37;;;;;;;44.08;26.73;;;;;;;-3.25;81.58;96376.88;1767436;79;21106;-76
2021/01/15 06:25:07;;;;;;;47.78;26.68;;;;;;;-3.23;81.52;96386.03;1786139;79;21133;-76
2021/01/15 06:27:38;;;;;;;43.00;25.50;;;;;;;-3.29;81.34;96382.58;1756183;80;21248;-76
2021/01/15 06:30:08;;;;;;;41.28;24.98;;;;;;;-3.29;81.29;96393.20;1779913;79;21105;-75
2021/01/15 06:32:34;;;;;;;39.18;23.67;;;;;;;-3.36;81.24;96405.03;1778202;80;21094;-76
2021/01/15 06:35:01;;;;;;;43.17;26.00;;;;;;;-3.36;81.37;96410.57;1774186;79;21419;-76
2021/01/15 06:37:27;;;;;;;44.80;25.82;;;;;;;-3.39;81.36;96410.77;1725592;81;21137;-76
2021/01/15 06:40:02;;;;;;;51.15;29.10;;;;;;;-3.36;81.46;96408.84;1718856;81;21902;-76
2021/01/15 06:42:30;;;;;;;43.75;26.07;;;;;;;-3.32;81.49;96416.63;1750885;81;21118;-76
2021/01/15 06:44:57;;;;;;;40.48;23.52;;;;;;;-3.30;81.44;96416.98;1739869;81;21159;-76
2021/01/15 06:47:27;;;;;;;45.00;24.40;;;;;;;-3.32;81.35;96420.89;1739367;81;21146;-75
2021/01/15 06:49:57;;;;;;;38.50;22.73;;;;;;;-3.35;81.32;96423.17;1731698;82;21119;-76
2021/01/15 06:52:27;;;;;;;49.45;26.42;;;;;;;-3.40;81.34;96423.92;1743843;82;21146;-76
2021/01/15 06:54:55;;;;;;;42.50;24.98;;;;;;;-3.39;81.45;96431.91;1738473;81;21387;-75
2021/01/15 06:57:25;;;;;;;45.45;24.02;;;;;;;-3.35;81.50;96425.72;1741857;82;21345;-76
2021/01/15 06:59:51;;;;;;;46.20;24.10;;;;;;;-3.34;81.36;96423.98;1744814;81;21075;-75
2021/01/15 07:02:55;;;;;;;37.13;21.33;;;;;;;-3.32;81.33;96424.70;1739130;82;21134;-76
2021/01/15 07:05:25;;;;;;;30.32;19.73;;;;;;;-3.33;81.17;96420.53;1738354;81;21890;-75
2021/01/15 07:07:51;;;;;;;31.87;19.20;;;;;;;-3.36;81.09;96427.90;1742159;82;21542;-77
2021/01/15 07:10:17;;;;;;;35.10;21.68;;;;;;;-3.32;81.04;96429.33;1736742;81;21134;-77
2021/01/15 07:12:43;;;;;;;40.83;23.25;;;;;;;-3.33;81.05;96434.05;1739599;81;21095;-77
2021/01/15 07:15:17;;;;;;;36.85;20.65;;;;;;;-3.35;80.83;96443.50;1740317;81;21142;-77
2021/01/15 07:17:47;;;;;;;35.95;19.42;;;;;;;-3.42;80.66;96437.61;1657909;84;21122;-78
2021/01/15 07:20:18;;;;;;;37.53;22.75;;;;;;;-3.49;80.45;96445.26;1734002;81;21123;-78
2021/01/15 07:22:54;;;;;;;36.85;21.87;;;;;;;-3.48;80.77;96444.34;1736698;82;21166;-78
2021/01/15 07:25:21;;;;;;;31.15;19.52;;;;;;;-3.45;80.59;96444.16;1739946;81;21415;-77
2021/01/15 07:27:47;;;;;;;38.38;21.05;;;;;;;-3.49;80.30;96449.88;1735593;81;21224;-77
2021/01/15 07:30:21;;;;;;;33.63;20.80;;;;;;;-3.48;80.45;96452.78;1740011;82;21146;-77
2021/01/15 07:32:51;;;;;;;32.00;19.10;;;;;;;-3.46;80.50;96462.39;1707538;82;21458;-77
2021/01/15 07:35:19;;;;;;;28.60;18.87;;;;;;;-3.53;79.69;96467.50;1734288;81;21157;-78
2021/01/15 07:37:45;;;;;;;32.75;18.65;;;;;;;-3.58;79.96;96466.13;1736921;82;21106;-77
2021/01/15 07:40:20;;;;;;;32.63;19.27;;;;;;;-3.60;80.00;96461.59;1740253;82;21319;-77
2021/01/15 07:42:59;;;;;;;39.00;21.65;;;;;;;-3.60;80.05;96472.57;1660976;84;21163;-75
2021/01/15 07:45:33;;;;;;;40.65;24.70;;;;;;;-3.57;80.36;96474.14;1741802;81;21107;-76
2021/01/15 07:48:06;;;;;;;37.15;23.20;;;;;;;-3.57;80.25;96476.67;1752179;80;21237;-75
2021/01/15 07:50:42;;;;;;;36.38;21.20;;;;;;;-3.60;80.31;96479.37;1749563;80;21430;-75
2021/01/15 07:53:17;;;;;;;36.30;21.48;;;;;;;-3.66;80.35;96488.19;1767339;80;21102;-76
2021/01/15 07:55:58;;;;;;;24.02;13.48;;;;;;;-3.74;80.55;96491.20;1762402;80;21128;-76
2021/01/15 07:58:38;;;;;;;23.87;13.80;;;;;;;-3.81;80.61;96495.00;1758040;80;21359;-77
2021/01/15 08:01:07;;;;;;;24.87;15.08;;;;;;;-3.98;79.81;96498.98;1762077;80;21496;-77
2021/01/15 08:03:43;;;;;;;25.65;17.95;;;;;;;-4.22;79.50;96502.95;1771284;80;21148;-77
2021/01/15 08:06:10;;;;;;;29.55;17.27;;;;;;;-4.36;79.79;96508.81;1728014;81;21115;-77
2021/01/15 08:08:41;;;;;;;22.42;11.95;;;;;;;-4.36;79.73;96513.44;1757834;81;21095;-77
2021/01/15 08:11:11;;;;;;;26.57;17.57;;;;;;;-4.40;79.39;96520.02;1767115;80;21124;-77
2021/01/15 08:13:38;;;;;;;26.97;18.65;;;;;;;-4.57;79.27;96529.84;1764503;80;21263;-77
2021/01/15 08:16:06;;;;;;;26.80;18.20;;;;;;;-4.56;79.73;96536.55;1706407;83;21261;-79
2021/01/15 08:18:33;;;;;;;28.77;17.05;;;;;;;-4.54;79.53;96534.31;1705701;84;21162;-79
2021/01/15 08:20:59;;;;;;;21.37;13.20;;;;;;;-4.57;79.17;96538.72;1760683;80;21088;-78
2021/01/15 08:23:28;;;;;;;27.17;16.95;;;;;;;-4.63;78.93;96547.94;1753464;81;21341;-79
2021/01/15 08:26:12;;;;;;;26.70;18.20;;;;;;;-4.66;79.10;96551.47;1752776;81;21265;-77
2021/01/15 08:28:38;;;;;;;26.37;16.55;;;;;;;-4.65;78.66;96553.55;1763511;80;21254;-76
2021/01/15 08:31:06;;;;;;;26.23;16.48;;;;;;;-4.67;78.19;96554.91;1740809;80;21139;-76
2021/01/15 08:33:34;;;;;;;23.50;13.25;;;;;;;-4.69;78.06;96551.64;1774831;80;21425;-76
2021/01/15 08:36:03;;;;;;;29.80;18.37;;;;;;;-4.61;77.14;96549.48;1774984;80;21177;-76
2021/01/15 08:38:34;;;;;;;30.20;20.60;;;;;;;-4.66;77.38;96550.66;1692691;82;21256;-76
2021/01/15 08:41:01;;;;;;;31.52;21.55;;;;;;;-4.62;77.55;96547.04;1746283;81;21126;-76
2021/01/15 08:43:30;;;;;;;36.25;19.48;;;;;;;-4.59;77.39;96555.73;1762297;80;21221;-76
2021/01/15 08:45:56;;;;;;;34.80;20.77;;;;;;;-4.57;77.23;96565.34;1761634;80;21403;-76
2021/01/15 08:48:24;;;;;;;32.58;19.37;;;;;;;-4.57;76.98;96572.95;1682666;84;21153;-76
2021/01/15 08:50:53;;;;;;;33.85;19.15;;;;;;;-4.50;76.78;96576.80;1763857;80;21312;-76
2021/01/15 08:53:23;;;;;;;31.17;18.07;;;;;;;-4.48;76.77;96578.80;1774578;80;21486;-76
2021/01/15 08:55:49;;;;;;;27.45;18.30;;;;;;;-4.40;76.54;96581.70;1773175;80;21256;-76
2021/01/15 08:58:15;;;;;;;25.35;17.37;;;;;;;-4.44;76.01;96590.39;1766333;80;21087;-76
2021/01/15 09:00:41;;;;;;;22.58;15.83;;;;;;;-4.42;76.11;96587.32;1768546;80;21122;-76
2021/01/15 09:03:10;;;;;;;29.85;19.48;;;;;;;-4.45;75.29;96578.63;1771493;80;21241;-76
2021/01/15 09:05:35;;;;;;;27.67;17.20;;;;;;;-4.46;75.60;96564.76;1763037;80;21401;-76
2021/01/15 09:08:03;;;;;;;28.83;17.37;;;;;;;-4.40;75.72;96565.67;1769912;81;21142;-76
2021/01/15 09:10:30;;;;;;;28.50;17.90;;;;;;;-4.29;75.61;96546.42;1766375;80;21103;-76
2021/01/15 09:13:03;;;;;;;31.40;18.45;;;;;;;-4.26;75.75;96533.55;1760817;80;21890;-76
2021/01/15 09:15:30;;;;;;;28.85;16.35;;;;;;;-3.88;75.47;96551.31;1761612;80;21130;-76
2021/01/15 09:17:58;;;;;;;25.65;15.93;;;;;;;-3.65;74.96;96541.88;1757394;80;21296;-76
2021/01/15 09:20:24;;;;;;;22.32;14.05;;;;;;;-3.47;74.68;96548.41;1747966;81;21143;-76
2021/01/15 09:22:51;;;;;;;13.93;9.88;;;;;;;-3.37;73.75;96550.77;1754378;80;22061;-76
2021/01/15 09:25:17;;;;;;;17.50;11.97;;;;;;;-3.38;71.40;96550.86;1762010;80;21110;-76
2021/01/15 09:27:45;;;;;;;12.47;9.50;;;;;;;-3.38;71.89;96546.59;1770017;80;21098;-77
2021/01/15 09:30:13;;;;;;;11.35;7.80;;;;;;;-3.22;71.60;96552.84;1753477;81;21138;-76
2021/01/15 09:32:43;;;;;;;16.30;10.35;;;;;;;-3.09;70.09;96548.65;1766125;80;21381;-76
2021/01/15 09:35:11;;;;;;;9.88;7.92;;;;;;;-2.92;69.79;96553.15;1761603;80;21099;-76
2021/01/15 09:37:38;;;;;;;10.95;7.37;;;;;;;-2.77;70.50;96549.63;1766673;80;21329;-76
2021/01/15 09:40:06;;;;;;;10.63;7.30;;;;;;;-2.66;69.45;96557.41;1762353;81;21078;-76
2021/01/15 09:42:32;;;;;;;9.95;6.40;;;;;;;-2.61;68.15;96551.56;1752729;80;21062;-76
2021/01/15 09:44:58;;;;;;;10.88;8.28;;;;;;;-2.53;66.60;96563.36;1757550;80;21102;-78
2021/01/15 09:47:24;;;;;;;12.07;7.97;;;;;;;-2.57;67.47;96566.20;1760398;80;21123;-78
2021/01/15 09:49:50;;;;;;;17.23;12.47;;;;;;;-2.47;67.10;96563.42;1769929;81;21130;-78
2021/01/15 09:52:16;;;;;;;26.62;15.93;;;;;;;-2.38;67.73;96564.58;1763417;80;21154;-77
2021/01/15 09:54:42;;;;;;;29.05;18.55;;;;;;;-2.50;66.59;96572.06;1758649;80;21129;-77
2021/01/15 09:57:08;;;;;;;32.33;19.25;;;;;;;-2.50;65.75;96567.44;1759687;80;21127;-77
2021/01/15 09:59:35;;;;;;;26.75;16.15;;;;;;;-2.58;68.16;96562.84;1759771;80;21664;-77
2021/01/15 10:02:01;;;;;;;32.10;19.90;;;;;;;-2.49;68.26;96556.34;1756687;80;21239;-78
2021/01/15 10:04:27;;;;;;;18.95;12.73;;;;;;;-2.43;68.71;96549.16;1767834;80;21345;-77
2021/01/15 10:06:53;;;;;;;10.95;7.92;;;;;;;-2.27;68.19;96540.54;1752441;80;21462;-79
2021/01/15 10:09:19;;;;;;;12.93;8.18;;;;;;;-2.15;65.96;96539.72;1768079;81;21150;-77
2021/01/15 10:11:47;;;;;;;12.37;7.40;;;;;;;-2.18;64.72;96547.11;1765257;80;21134;-78
2021/01/15 10:14:18;;;;;;;9.88;6.60;;;;;;;-2.10;66.28;96549.63;1764084;80;21338;-77
2021/01/15 10:16:49;;;;;;;6.20;5.00;;;;;;;-2.08;64.98;96549.88;1780447;80;21070;-79
2021/01/15 10:19:19;;;;;;;4.97;4.10;;;;;;;-2.08;62.70;96554.16;1757921;81;21340;-77
2021/01/15 10:21:46;;;;;;;6.75;5.60;;;;;;;-2.04;64.75;96564.03;1760957;80;21127;-77
2021/01/15 10:24:13;;;;;;;6.78;4.90;;;;;;;-1.87;64.79;96554.83;1728101;82;21155;-77
2021/01/15 10:26:40;;;;;;;6.22;4.37;;;;;;;-1.77;64.34;96554.23;1757494;80;21093;-77
2021/01/15 10:29:12;;;;;;;5.95;5.35;;;;;;;-1.67;63.63;96553.97;1768618;80;21118;-77
2021/01/15 10:31:49;;;;;;;4.10;3.35;;;;;;;-1.81;63.17;96552.33;1763910;80;21346;-77
2021/01/15 10:34:15;;;;;;;4.83;3.85;;;;;;;-1.74;62.90;96554.84;1753767;80;21330;-77
2021/01/15 10:36:43;;;;;;;3.83;3.42;;;;;;;-1.68;62.71;96547.24;1749139;80;21256;-77
2021/01/15 10:39:12;;;;;;;4.80;3.17;;;;;;;-1.61;61.43;96554.39;1751860;81;21146;-77
2021/01/15 10:41:41;;;;;;;3.85;3.55;;;;;;;-1.67;59.52;96547.14;1761467;80;21337;-77
2021/01/15 10:44:09;;;;;;;4.42;3.35;;;;;;;-1.73;61.05;96546.28;1764933;80;21138;-77
2021/01/15 10:46:40;;;;;;;5.22;4.30;;;;;;;-1.62;61.43;96543.84;1767363;80;21106;-77
2021/01/15 10:49:11;;;;;;;7.92;5.22;;;;;;;-1.45;62.06;96540.16;1759577;80;22050;-77
2021/01/15 10:51:49;;;;;;;8.43;5.72;;;;;;;-1.31;60.68;96546.84;1770053;80;21392;-78
2021/01/15 10:54:15;;;;;;;9.70;5.12;;;;;;;-1.27;61.33;96536.35;1755667;81;21274;-77
2021/01/15 10:56:45;;;;;;;6.00;4.15;;;;;;;-1.17;60.51;96548.45;1762023;80;21125;-76
2021/01/15 10:59:11;;;;;;;3.83;3.45;;;;;;;-1.18;59.73;96541.27;1752430;81;21126;-77
2021/01/15 11:01:51;;;;;;;6.72;4.30;;;;;;;-1.15;58.80;96539.77;1766465;80;21075;-77
2021/01/15 11:04:20;;;;;;;;;;;;;;;-1.11;60.57;96545.03;1752890;81;21121;-76
2021/01/15 11:06:53;;;;;;;10.63;6.87;;;;;;;-1.20;57.46;96545.66;1768550;80;20165;-76
2021/01/15 11:09:20;;;;;;;13.08;7.58;;;;;;;-1.51;56.38;96549.02;1764808;80;21111;-77
2021/01/15 11:11:50;;;;;;;14.85;7.53;;;;;;;-1.58;57.63;96549.08;1727264;81;21138;-77
2021/01/15 11:14:17;;;;;;;11.38;7.30;;;;;;;-1.42;59.55;96546.31;1762404;80;21429;-77
2021/01/15 11:16:44;;;;;;;8.58;6.03;;;;;;;-1.30;60.40;96554.41;1760814;80;21122;-76
2021/01/15 11:19:10;;;;;;;9.28;5.87;;;;;;;-1.27;57.78;96550.38;1762762;80;21448;-76
2021/01/15 11:21:36;;;;;;;8.30;6.12;;;;;;;-1.30;56.78;96544.67;1762041;80;21119;-78
2021/01/15 11:24:03;;;;;;;8.55;6.10;;;;;;;-1.32;57.33;96546.48;1761473;81;21251;-79
2021/01/15 11:26:34;;;;;;;9.08;7.08;;;;;;;-1.42;56.71;96546.78;1759266;81;21122;-78
2021/01/15 11:29:05;;;;;;;7.08;4.85;;;;;;;-1.55;55.58;96540.41;1752637;81;21133;-78
2021/01/15 11:31:32;;;;;;;10.05;6.83;;;;;;;-1.83;53.17;96540.97;1755096;80;21106;-77
2021/01/15 11:33:58;;;;;;;12.55;7.58;;;;;;;-1.92;56.54;96544.14;1755659;81;21097;-77
2021/01/15 11:36:30;;;;;;;15.88;8.85;;;;;;;-1.86;57.19;96545.46;1767046;80;21110;-78